Home Previsioni Grafici Avvisi Live Satellite Webcam Min e Max Mappe Metar Effemeridi Terremoti Info Glossario

Report METAR

 

LIEB - Cape Bellavista, Italy
Distance from station: SE 54km
Dati ricevuti: 17/11/2018 14:55
Molto nuvoloso
Molto nuvoloso
 Vento da NO
Vento: NO 17 km/h
Temperatura: 12°C
P.to Rugiada: 9°C
Umidità: 82%
Barometro: 1014 hPa
Nuvole: Molto nuvoloso
Visibility: 10 km
Cloud details: Parz. nuvoloso 610 m
Molto nuvoloso 914 m
2018/11/17 13:55 LIEB 171355Z 32009KT 9999 SCT020TCU BKN030 12/09 Q1014 RMK OVC QUK 4 QUL 3 E VIS MAR 20 KM MON W CIME INC NC VIS MIN 9999
LIEO - Olbia/Costa Smer, Italy
Distance from station: NNE 70km
Dati ricevuti: 17/11/2018 15:50
Pioviggine, Nuvoloso
Pioviggine, Nuvoloso
 Vento da Variabile
Vento: Variabile 2 km/h
Temperatura: 11°C
P.to Rugiada: 11°C
Umidità: 100%
Barometro: 1017 hPa
Summary: Pioviggine
Nuvole: Molto nuvoloso
Visibility: 8 km
Cloud details: Few Clouds 457 m
Molto nuvoloso 1219 m
2018/11/17 14:50 LIEO 171450Z VRB01KT 8000 -RA FEW015 BKN040 11/11 Q1017
 
LIEA - Alghero, Italy
Distance from station: ONO 94km
Dati ricevuti: 17/11/2018 15:50
Few Clouds
Few Clouds
 Vento da ENE
Vento: ENE 20 km/h
Temperatura: 14°C
P.to Rugiada: 8°C
Umidità: 67%
Barometro: 1015 hPa
Nuvole: Few Clouds
Visibility: 10 km
Cloud details: Few Clouds 1219 m
2018/11/17 14:50 LIEA 171450Z 06011KT 9999 FEW040 14/08 Q1015
LIED - Decimomannu(It-A, Italy
Distance from station: SSO 107km
Dati ricevuti: 17/11/2018 14:55
Light drizzle, Nuvoloso
Light drizzle, Nuvoloso
 Vento da NE
Vento: NE 4 km/h
Temperatura: 13°C
P.to Rugiada: 11°C
Umidità: 88%
Barometro: 1014 hPa
Summary: Light Drizzle
Nuvole: Molto nuvoloso
Visibility: 6 km
Cloud details: Few Clouds 244 m
Parz. nuvoloso 762 m
Molto nuvoloso 1829 m
2018/11/17 13:55 LIED 171355Z 05002KT 6000 -DZ FEW008 SCT025 BKN060 13/11 Q1014 RMK OVC VIS MIN 6000 WIND THR35 /////KT WIND THR17 /////KT WHT
 
LIEE - Cagliari/Elmas(A, Italy
Distance from station: S 116km
Dati ricevuti: 17/11/2018 15:50
Molto nuvoloso
Molto nuvoloso
 Vento da NE
Vento: NE 9 km/h
Temperatura: 13°C
P.to Rugiada: 10°C
Umidità: 82%
Barometro: 1014 hPa
Nuvole: Molto nuvoloso
Visibility: 10 km
Cloud details: Few Clouds 1219 m
Molto nuvoloso 1829 m
2018/11/17 14:50 LIEE 171450Z 04005KT 9999 FEW040 BKN060 13/10 Q1014
LIEC - Cape Carbonara, Italy
Distance from station: S 133km
Dati ricevuti: 17/11/2018 14:55
Molto nuvoloso
Molto nuvoloso
 Vento da E
Vento: E 31 km/h
Temperatura: 15°C
P.to Rugiada: 9°C
Umidità: 68%
Barometro: 1013 hPa
Nuvole: Molto nuvoloso
Visibility: 10 km
Cloud details: Molto nuvoloso 762 m
2018/11/17 13:55 LIEC 171355Z 09017KT 9999 BKN025 15/09 Q1013 RMK OVC OVC070 QUK 3 QUL 0 VIS MAR 20 KM VIS MIN 9999
 
LFKF - Figari (aut), France
Distance from station: N 137km
Dati ricevuti: 17/11/2018 16:00
Temporale
Temporale
 Vento da NE
Vento: NE 19 km/h
Temperatura: 11°C
P.to Rugiada: 7°C
Umidità: 77%
Barometro: 1017 hPa
Nuvole: Temporale
Visibility: 10 km
Cloud details: Few Clouds 1006 m
Coperto 3048 m
2018/11/17 15:00 LFKF 171500Z AUTO 04010KT 010V070 9999 FEW033/// OVC100/// ///TCU 11/07 Q1017 TEMPO
LFKS - Solenzara (fafb), France
Distance from station: N 182km
Dati ricevuti: 17/11/2018 16:00
Molto nuvoloso
Molto nuvoloso
 Vento da NO
Vento: NO 9 km/h
Nuvole: Molto nuvoloso
Visibility: 10 km
Cloud details: Few Clouds 1402 m
Molto nuvoloso 1768 m
Molto nuvoloso 2134 m
2018/11/17 15:00 LFKS 171500Z AUTO 32005KT 280V350 9999 FEW046/// BKN058/// BKN070///